sensor_id;sensor_type;location;lat;lon;timestamp;temperature;humidity
23579;DHT22;11967;50.852;4.400;2023-05-10T00:00:56;15.80;99.90
23579;DHT22;11967;50.852;4.400;2023-05-10T00:03:22;15.90;99.90
23579;DHT22;11967;50.852;4.400;2023-05-10T00:05:48;15.90;99.90
23579;DHT22;11967;50.852;4.400;2023-05-10T00:08:13;15.90;99.90
23579;DHT22;11967;50.852;4.400;2023-05-10T00:10:39;15.90;99.90
23579;DHT22;11967;50.852;4.400;2023-05-10T00:13:05;15.80;99.90
23579;DHT22;11967;50.852;4.400;2023-05-10T00:15:31;15.80;99.90
23579;DHT22;11967;50.852;4.400;2023-05-10T00:17:57;15.80;99.90
23579;DHT22;11967;50.852;4.400;2023-05-10T00:20:22;15.80;99.90
23579;DHT22;11967;50.852;4.400;2023-05-10T00:22:48;15.80;99.90
23579;DHT22;11967;50.852;4.400;2023-05-10T00:25:14;15.80;99.90
23579;DHT22;11967;50.852;4.400;2023-05-10T00:27:39;15.70;99.90
23579;DHT22;11967;50.852;4.400;2023-05-10T00:30:06;15.80;99.90
23579;DHT22;11967;50.852;4.400;2023-05-10T00:32:33;15.70;99.90
23579;DHT22;11967;50.852;4.400;2023-05-10T00:34:58;15.60;99.90
23579;DHT22;11967;50.852;4.400;2023-05-10T00:37:24;15.60;99.90
23579;DHT22;11967;50.852;4.400;2023-05-10T00:39:50;15.70;99.90
23579;DHT22;11967;50.852;4.400;2023-05-10T00:42:16;15.80;99.90
23579;DHT22;11967;50.852;4.400;2023-05-10T00:44:42;15.90;99.90
23579;DHT22;11967;50.852;4.400;2023-05-10T00:47:10;15.80;99.90
23579;DHT22;11967;50.852;4.400;2023-05-10T00:49:37;15.90;99.90
23579;DHT22;11967;50.852;4.400;2023-05-10T00:52:04;15.90;99.90
23579;DHT22;11967;50.852;4.400;2023-05-10T00:54:30;15.80;99.90
23579;DHT22;11967;50.852;4.400;2023-05-10T00:56:55;15.70;99.90
23579;DHT22;11967;50.852;4.400;2023-05-10T00:59:22;15.80;99.90
23579;DHT22;11967;50.852;4.400;2023-05-10T01:01:48;15.80;99.90
23579;DHT22;11967;50.852;4.400;2023-05-10T01:04:15;15.80;99.90
23579;DHT22;11967;50.852;4.400;2023-05-10T01:06:41;15.70;99.90
23579;DHT22;11967;50.852;4.400;2023-05-10T01:09:07;15.80;99.90
23579;DHT22;11967;50.852;4.400;2023-05-10T01:11:37;15.80;99.90
23579;DHT22;11967;50.852;4.400;2023-05-10T01:14:05;15.80;99.90
23579;DHT22;11967;50.852;4.400;2023-05-10T01:16:38;15.80;99.90
23579;DHT22;11967;50.852;4.400;2023-05-10T01:19:12;15.90;99.90
23579;DHT22;11967;50.852;4.400;2023-05-10T01:27:28;15.70;99.90
23579;DHT22;11967;50.852;4.400;2023-05-10T01:35:40;15.70;99.90
23579;DHT22;11967;50.852;4.400;2023-05-10T01:38:36;15.70;99.90
23579;DHT22;11967;50.852;4.400;2023-05-10T01:46:39;15.70;99.90
23579;DHT22;11967;50.852;4.400;2023-05-10T01:49:14;15.70;99.90
23579;DHT22;11967;50.852;4.400;2023-05-10T01:51:48;15.70;99.90
23579;DHT22;11967;50.852;4.400;2023-05-10T01:54:19;15.70;99.90
23579;DHT22;11967;50.852;4.400;2023-05-10T01:56:48;15.60;99.90
23579;DHT22;11967;50.852;4.400;2023-05-10T01:59:18;15.70;99.90
23579;DHT22;11967;50.852;4.400;2023-05-10T02:01:46;15.80;99.90
23579;DHT22;11967;50.852;4.400;2023-05-10T02:04:14;15.70;99.90
23579;DHT22;11967;50.852;4.400;2023-05-10T02:06:42;15.70;99.90
23579;DHT22;11967;50.852;4.400;2023-05-10T02:09:09;15.70;99.90
23579;DHT22;11967;50.852;4.400;2023-05-10T02:11:39;15.60;99.90
23579;DHT22;11967;50.852;4.400;2023-05-10T02:14:09;15.60;99.90
23579;DHT22;11967;50.852;4.400;2023-05-10T02:16:38;15.60;99.90
23579;DHT22;11967;50.852;4.400;2023-05-10T02:19:05;15.70;99.90
23579;DHT22;11967;50.852;4.400;2023-05-10T02:21:32;15.60;99.90
23579;DHT22;11967;50.852;4.400;2023-05-10T02:24:00;15.70;99.90
23579;DHT22;11967;50.852;4.400;2023-05-10T02:26:26;15.60;99.90
23579;DHT22;11967;50.852;4.400;2023-05-10T02:28:53;15.50;99.90
23579;DHT22;11967;50.852;4.400;2023-05-10T02:31:20;15.50;99.90
23579;DHT22;11967;50.852;4.400;2023-05-10T02:33:47;15.50;99.90
23579;DHT22;11967;50.852;4.400;2023-05-10T02:36:13;15.50;99.90
23579;DHT22;11967;50.852;4.400;2023-05-10T02:38:40;15.40;99.90
23579;DHT22;11967;50.852;4.400;2023-05-10T02:41:08;15.40;99.90
23579;DHT22;11967;50.852;4.400;2023-05-10T02:43:35;15.30;99.90
23579;DHT22;11967;50.852;4.400;2023-05-10T02:46:01;15.30;99.90
23579;DHT22;11967;50.852;4.400;2023-05-10T02:48:28;15.30;99.90
23579;DHT22;11967;50.852;4.400;2023-05-10T02:50:56;15.30;99.90
23579;DHT22;11967;50.852;4.400;2023-05-10T02:53:31;15.40;99.90
23579;DHT22;11967;50.852;4.400;2023-05-10T02:56:00;15.40;99.90
23579;DHT22;11967;50.852;4.400;2023-05-10T02:58:27;15.40;99.90
23579;DHT22;11967;50.852;4.400;2023-05-10T03:00:52;15.50;99.90
23579;DHT22;11967;50.852;4.400;2023-05-10T03:03:19;15.30;99.90
23579;DHT22;11967;50.852;4.400;2023-05-10T03:05:45;15.30;99.90
23579;DHT22;11967;50.852;4.400;2023-05-10T03:08:11;15.40;99.90
23579;DHT22;11967;50.852;4.400;2023-05-10T03:10:45;15.50;99.90
23579;DHT22;11967;50.852;4.400;2023-05-10T03:16:10;15.40;99.90
23579;DHT22;11967;50.852;4.400;2023-05-10T03:19:02;15.40;99.90
23579;DHT22;11967;50.852;4.400;2023-05-10T03:21:31;15.30;99.90
23579;DHT22;11967;50.852;4.400;2023-05-10T03:23:58;15.40;99.90
23579;DHT22;11967;50.852;4.400;2023-05-10T03:26:27;15.30;99.90
23579;DHT22;11967;50.852;4.400;2023-05-10T03:28:54;15.40;99.90
23579;DHT22;11967;50.852;4.400;2023-05-10T03:31:21;15.30;99.90
23579;DHT22;11967;50.852;4.400;2023-05-10T03:33:50;15.30;99.90
23579;DHT22;11967;50.852;4.400;2023-05-10T03:36:16;15.30;99.90
23579;DHT22;11967;50.852;4.400;2023-05-10T03:38:42;15.40;99.90
23579;DHT22;11967;50.852;4.400;2023-05-10T03:41:08;15.40;99.90
23579;DHT22;11967;50.852;4.400;2023-05-10T03:43:33;15.40;99.90
23579;DHT22;11967;50.852;4.400;2023-05-10T03:46:02;15.30;99.90
23579;DHT22;11967;50.852;4.400;2023-05-10T03:48:27;15.30;99.90
23579;DHT22;11967;50.852;4.400;2023-05-10T03:50:53;15.40;99.90
23579;DHT22;11967;50.852;4.400;2023-05-10T03:53:19;15.50;99.90
23579;DHT22;11967;50.852;4.400;2023-05-10T03:55:44;15.50;99.90
23579;DHT22;11967;50.852;4.400;2023-05-10T03:58:11;15.60;99.90
23579;DHT22;11967;50.852;4.400;2023-05-10T04:00:38;15.60;99.90
23579;DHT22;11967;50.852;4.400;2023-05-10T04:03:09;15.60;99.90
23579;DHT22;11967;50.852;4.400;2023-05-10T04:05:35;15.60;99.90
23579;DHT22;11967;50.852;4.400;2023-05-10T04:08:01;15.60;99.90
23579;DHT22;11967;50.852;4.400;2023-05-10T04:10:27;15.60;99.90
23579;DHT22;11967;50.852;4.400;2023-05-10T04:12:53;15.60;99.90
23579;DHT22;11967;50.852;4.400;2023-05-10T04:15:21;15.60;99.90
23579;DHT22;11967;50.852;4.400;2023-05-10T04:17:48;15.60;99.90
23579;DHT22;11967;50.852;4.400;2023-05-10T04:20:13;15.60;99.90
23579;DHT22;11967;50.852;4.400;2023-05-10T04:22:40;15.60;99.90
23579;DHT22;11967;50.852;4.400;2023-05-10T04:25:06;15.60;99.90
23579;DHT22;11967;50.852;4.400;2023-05-10T04:27:32;15.60;99.90
23579;DHT22;11967;50.852;4.400;2023-05-10T04:29:58;15.60;99.90
23579;DHT22;11967;50.852;4.400;2023-05-10T04:32:24;15.60;99.90
23579;DHT22;11967;50.852;4.400;2023-05-10T04:34:50;15.70;99.90
23579;DHT22;11967;50.852;4.400;2023-05-10T04:37:19;15.70;99.90
23579;DHT22;11967;50.852;4.400;2023-05-10T04:39:47;15.70;99.90
23579;DHT22;11967;50.852;4.400;2023-05-10T04:42:13;15.70;99.90
23579;DHT22;11967;50.852;4.400;2023-05-10T04:44:40;15.70;99.90
23579;DHT22;11967;50.852;4.400;2023-05-10T04:47:06;15.70;99.90
23579;DHT22;11967;50.852;4.400;2023-05-10T04:49:32;15.60;99.90
23579;DHT22;11967;50.852;4.400;2023-05-10T04:51:58;15.60;99.90
23579;DHT22;11967;50.852;4.400;2023-05-10T04:54:24;15.60;99.90
23579;DHT22;11967;50.852;4.400;2023-05-10T04:56:50;15.60;99.90
23579;DHT22;11967;50.852;4.400;2023-05-10T04:59:15;15.60;99.90
23579;DHT22;11967;50.852;4.400;2023-05-10T05:01:42;15.60;99.90
23579;DHT22;11967;50.852;4.400;2023-05-10T05:04:08;15.60;99.90
23579;DHT22;11967;50.852;4.400;2023-05-10T05:06:34;15.60;99.90
23579;DHT22;11967;50.852;4.400;2023-05-10T05:09:00;15.70;99.90
23579;DHT22;11967;50.852;4.400;2023-05-10T05:11:25;15.70;99.90
23579;DHT22;11967;50.852;4.400;2023-05-10T05:13:52;15.70;99.90
23579;DHT22;11967;50.852;4.400;2023-05-10T05:16:18;15.70;99.90
23579;DHT22;11967;50.852;4.400;2023-05-10T05:18:43;15.80;99.90
23579;DHT22;11967;50.852;4.400;2023-05-10T05:21:16;15.90;99.90
23579;DHT22;11967;50.852;4.400;2023-05-10T05:23:47;16.00;99.90
23579;DHT22;11967;50.852;4.400;2023-05-10T05:26:13;15.90;99.90
23579;DHT22;11967;50.852;4.400;2023-05-10T05:28:40;15.90;99.90
23579;DHT22;11967;50.852;4.400;2023-05-10T05:31:06;15.90;99.90
23579;DHT22;11967;50.852;4.400;2023-05-10T05:33:33;15.90;99.90
23579;DHT22;11967;50.852;4.400;2023-05-10T05:36:04;15.90;99.90
23579;DHT22;11967;50.852;4.400;2023-05-10T05:38:30;15.90;99.90
23579;DHT22;11967;50.852;4.400;2023-05-10T05:40:55;15.80;99.90
23579;DHT22;11967;50.852;4.400;2023-05-10T05:43:22;15.70;99.90
23579;DHT22;11967;50.852;4.400;2023-05-10T05:45:48;15.70;99.90
23579;DHT22;11967;50.852;4.400;2023-05-10T05:48:14;15.60;99.90
23579;DHT22;11967;50.852;4.400;2023-05-10T05:50:41;15.60;99.90
23579;DHT22;11967;50.852;4.400;2023-05-10T05:53:08;15.40;99.90
23579;DHT22;11967;50.852;4.400;2023-05-10T05:55:34;15.50;99.90
23579;DHT22;11967;50.852;4.400;2023-05-10T05:58:00;15.40;99.90
23579;DHT22;11967;50.852;4.400;2023-05-10T06:00:26;15.40;99.90
23579;DHT22;11967;50.852;4.400;2023-05-10T06:02:51;15.30;99.90
23579;DHT22;11967;50.852;4.400;2023-05-10T06:05:17;15.30;99.90
23579;DHT22;11967;50.852;4.400;2023-05-10T06:07:43;15.30;99.90
23579;DHT22;11967;50.852;4.400;2023-05-10T06:10:09;15.40;99.90
23579;DHT22;11967;50.852;4.400;2023-05-10T06:12:34;15.40;99.90
23579;DHT22;11967;50.852;4.400;2023-05-10T06:15:00;15.30;99.90
23579;DHT22;11967;50.852;4.400;2023-05-10T06:17:26;15.20;99.90
23579;DHT22;11967;50.852;4.400;2023-05-10T06:19:52;15.40;99.90
23579;DHT22;11967;50.852;4.400;2023-05-10T06:22:18;15.40;99.90
23579;DHT22;11967;50.852;4.400;2023-05-10T06:24:44;15.40;99.90
23579;DHT22;11967;50.852;4.400;2023-05-10T06:27:09;15.40;99.90
23579;DHT22;11967;50.852;4.400;2023-05-10T06:29:35;15.30;99.90
23579;DHT22;11967;50.852;4.400;2023-05-10T06:32:01;15.20;99.90
23579;DHT22;11967;50.852;4.400;2023-05-10T06:34:26;15.30;99.90
23579;DHT22;11967;50.852;4.400;2023-05-10T06:36:52;15.20;99.90
23579;DHT22;11967;50.852;4.400;2023-05-10T06:39:18;15.10;99.90
23579;DHT22;11967;50.852;4.400;2023-05-10T06:41:43;15.20;99.90
23579;DHT22;11967;50.852;4.400;2023-05-10T06:44:09;15.20;99.90
23579;DHT22;11967;50.852;4.400;2023-05-10T06:46:35;15.10;99.90
23579;DHT22;11967;50.852;4.400;2023-05-10T06:49:01;15.20;99.90
23579;DHT22;11967;50.852;4.400;2023-05-10T06:51:26;15.20;99.90
23579;DHT22;11967;50.852;4.400;2023-05-10T06:53:52;15.20;99.90
23579;DHT22;11967;50.852;4.400;2023-05-10T06:56:18;15.20;99.90
23579;DHT22;11967;50.852;4.400;2023-05-10T06:58:49;15.10;99.90
23579;DHT22;11967;50.852;4.400;2023-05-10T07:01:15;15.10;99.90
23579;DHT22;11967;50.852;4.400;2023-05-10T07:03:41;15.10;99.90
23579;DHT22;11967;50.852;4.400;2023-05-10T07:06:07;15.10;99.90
23579;DHT22;11967;50.852;4.400;2023-05-10T07:08:35;15.00;99.90
23579;DHT22;11967;50.852;4.400;2023-05-10T07:11:02;15.00;99.90
23579;DHT22;11967;50.852;4.400;2023-05-10T07:13:30;15.00;99.90
23579;DHT22;11967;50.852;4.400;2023-05-10T07:15:57;15.10;99.90
23579;DHT22;11967;50.852;4.400;2023-05-10T07:18:23;15.00;99.90
23579;DHT22;11967;50.852;4.400;2023-05-10T07:20:48;15.00;99.90
23579;DHT22;11967;50.852;4.400;2023-05-10T07:23:14;14.90;99.90
23579;DHT22;11967;50.852;4.400;2023-05-10T07:25:40;14.90;99.90
23579;DHT22;11967;50.852;4.400;2023-05-10T07:28:06;14.90;99.90
23579;DHT22;11967;50.852;4.400;2023-05-10T07:30:31;14.90;99.90
23579;DHT22;11967;50.852;4.400;2023-05-10T07:32:57;15.00;99.90
23579;DHT22;11967;50.852;4.400;2023-05-10T07:35:23;14.90;99.90
23579;DHT22;11967;50.852;4.400;2023-05-10T07:37:48;14.90;99.90
23579;DHT22;11967;50.852;4.400;2023-05-10T07:40:14;14.90;99.90
23579;DHT22;11967;50.852;4.400;2023-05-10T07:42:39;14.90;99.90
23579;DHT22;11967;50.852;4.400;2023-05-10T07:45:06;14.90;99.90
23579;DHT22;11967;50.852;4.400;2023-05-10T07:47:31;14.90;99.90
23579;DHT22;11967;50.852;4.400;2023-05-10T07:49:57;14.80;99.90
23579;DHT22;11967;50.852;4.400;2023-05-10T07:52:23;14.80;99.90
23579;DHT22;11967;50.852;4.400;2023-05-10T07:54:49;14.80;99.90
23579;DHT22;11967;50.852;4.400;2023-05-10T07:57:15;14.80;99.90
23579;DHT22;11967;50.852;4.400;2023-05-10T07:59:43;14.90;99.90
23579;DHT22;11967;50.852;4.400;2023-05-10T08:02:09;14.90;99.90
23579;DHT22;11967;50.852;4.400;2023-05-10T08:04:34;14.80;99.90
23579;DHT22;11967;50.852;4.400;2023-05-10T08:07:00;14.90;99.90
23579;DHT22;11967;50.852;4.400;2023-05-10T08:09:26;14.90;99.90
23579;DHT22;11967;50.852;4.400;2023-05-10T08:11:51;14.90;99.90
23579;DHT22;11967;50.852;4.400;2023-05-10T08:14:17;15.00;99.90
23579;DHT22;11967;50.852;4.400;2023-05-10T08:16:43;15.10;99.90
23579;DHT22;11967;50.852;4.400;2023-05-10T08:19:09;15.20;99.90
23579;DHT22;11967;50.852;4.400;2023-05-10T08:21:36;15.30;99.90
23579;DHT22;11967;50.852;4.400;2023-05-10T08:24:01;15.40;99.90
23579;DHT22;11967;50.852;4.400;2023-05-10T08:26:28;15.50;99.90
23579;DHT22;11967;50.852;4.400;2023-05-10T08:28:55;15.50;99.90
23579;DHT22;11967;50.852;4.400;2023-05-10T08:31:21;15.60;99.90
23579;DHT22;11967;50.852;4.400;2023-05-10T08:33:47;15.60;99.90
23579;DHT22;11967;50.852;4.400;2023-05-10T08:36:12;15.70;99.90
23579;DHT22;11967;50.852;4.400;2023-05-10T08:38:39;15.70;99.90
23579;DHT22;11967;50.852;4.400;2023-05-10T08:41:05;15.70;99.90
23579;DHT22;11967;50.852;4.400;2023-05-10T08:43:32;15.70;99.90
23579;DHT22;11967;50.852;4.400;2023-05-10T08:46:02;15.70;99.90
23579;DHT22;11967;50.852;4.400;2023-05-10T08:48:33;15.70;99.90
23579;DHT22;11967;50.852;4.400;2023-05-10T08:51:00;15.80;99.90
23579;DHT22;11967;50.852;4.400;2023-05-10T08:53:29;15.90;99.90
23579;DHT22;11967;50.852;4.400;2023-05-10T08:55:56;16.10;99.90
23579;DHT22;11967;50.852;4.400;2023-05-10T08:58:21;16.10;99.90
23579;DHT22;11967;50.852;4.400;2023-05-10T09:00:49;16.10;99.90
23579;DHT22;11967;50.852;4.400;2023-05-10T09:03:16;16.20;99.90
23579;DHT22;11967;50.852;4.400;2023-05-10T09:05:42;16.10;99.90
23579;DHT22;11967;50.852;4.400;2023-05-10T09:08:08;16.00;99.90
23579;DHT22;11967;50.852;4.400;2023-05-10T09:10:34;15.90;99.90
23579;DHT22;11967;50.852;4.400;2023-05-10T09:13:00;15.90;99.90
23579;DHT22;11967;50.852;4.400;2023-05-10T09:15:27;15.80;99.90
23579;DHT22;11967;50.852;4.400;2023-05-10T09:17:53;15.80;99.90
23579;DHT22;11967;50.852;4.400;2023-05-10T09:20:19;15.70;99.90
23579;DHT22;11967;50.852;4.400;2023-05-10T09:22:45;15.60;99.90
23579;DHT22;11967;50.852;4.400;2023-05-10T09:25:15;15.50;99.90
23579;DHT22;11967;50.852;4.400;2023-05-10T09:27:45;15.40;99.90
23579;DHT22;11967;50.852;4.400;2023-05-10T09:30:27;15.30;99.90
23579;DHT22;11967;50.852;4.400;2023-05-10T09:32:54;15.30;99.90
23579;DHT22;11967;50.852;4.400;2023-05-10T09:35:23;15.20;99.90
23579;DHT22;11967;50.852;4.400;2023-05-10T09:37:51;15.10;99.90
23579;DHT22;11967;50.852;4.400;2023-05-10T09:40:22;15.20;99.90
23579;DHT22;11967;50.852;4.400;2023-05-10T09:43:14;15.30;99.90
23579;DHT22;11967;50.852;4.400;2023-05-10T09:45:41;15.30;99.90
23579;DHT22;11967;50.852;4.400;2023-05-10T09:48:06;15.20;99.90
23579;DHT22;11967;50.852;4.400;2023-05-10T09:50:32;15.30;99.90
23579;DHT22;11967;50.852;4.400;2023-05-10T09:53:01;15.40;99.90
23579;DHT22;11967;50.852;4.400;2023-05-10T09:55:42;15.40;99.90
23579;DHT22;11967;50.852;4.400;2023-05-10T09:58:10;15.50;99.90
23579;DHT22;11967;50.852;4.400;2023-05-10T10:00:41;15.50;99.90
23579;DHT22;11967;50.852;4.400;2023-05-10T10:03:13;15.50;99.90
23579;DHT22;11967;50.852;4.400;2023-05-10T10:05:40;15.40;99.90
23579;DHT22;11967;50.852;4.400;2023-05-10T10:08:08;15.40;99.90
23579;DHT22;11967;50.852;4.400;2023-05-10T10:10:34;15.40;99.90
23579;DHT22;11967;50.852;4.400;2023-05-10T10:13:01;15.40;99.90
23579;DHT22;11967;50.852;4.400;2023-05-10T10:15:27;15.30;99.90
23579;DHT22;11967;50.852;4.400;2023-05-10T10:17:53;15.30;99.90
23579;DHT22;11967;50.852;4.400;2023-05-10T10:20:20;15.30;99.90
23579;DHT22;11967;50.852;4.400;2023-05-10T10:22:46;15.40;99.90
23579;DHT22;11967;50.852;4.400;2023-05-10T10:25:15;15.40;99.90
23579;DHT22;11967;50.852;4.400;2023-05-10T10:27:47;15.40;99.90
23579;DHT22;11967;50.852;4.400;2023-05-10T10:30:42;15.30;99.90
23579;DHT22;11967;50.852;4.400;2023-05-10T10:35:52;15.10;99.90
23579;DHT22;11967;50.852;4.400;2023-05-10T10:38:18;15.20;99.90
23579;DHT22;11967;50.852;4.400;2023-05-10T10:40:44;15.30;99.90
23579;DHT22;11967;50.852;4.400;2023-05-10T10:43:27;15.30;99.90
23579;DHT22;11967;50.852;4.400;2023-05-10T10:46:28;15.30;99.90
23579;DHT22;11967;50.852;4.400;2023-05-10T10:49:10;15.40;99.90
23579;DHT22;11967;50.852;4.400;2023-05-10T10:51:39;15.40;99.90
23579;DHT22;11967;50.852;4.400;2023-05-10T10:54:11;15.40;99.90
23579;DHT22;11967;50.852;4.400;2023-05-10T10:56:37;15.40;99.90
23579;DHT22;11967;50.852;4.400;2023-05-10T10:59:03;15.40;99.90
23579;DHT22;11967;50.852;4.400;2023-05-10T11:01:35;15.40;99.90
23579;DHT22;11967;50.852;4.400;2023-05-10T11:06:31;15.40;99.90
23579;DHT22;11967;50.852;4.400;2023-05-10T11:08:58;15.50;99.90
23579;DHT22;11967;50.852;4.400;2023-05-10T11:11:24;15.50;99.90
23579;DHT22;11967;50.852;4.400;2023-05-10T11:13:51;15.50;99.90
23579;DHT22;11967;50.852;4.400;2023-05-10T11:19:04;15.50;99.90
23579;DHT22;11967;50.852;4.400;2023-05-10T11:21:33;15.60;99.90
23579;DHT22;11967;50.852;4.400;2023-05-10T11:24:00;15.60;99.90
23579;DHT22;11967;50.852;4.400;2023-05-10T11:26:31;15.60;99.90
23579;DHT22;11967;50.852;4.400;2023-05-10T11:28:57;15.60;99.90
23579;DHT22;11967;50.852;4.400;2023-05-10T11:31:26;15.70;99.90
23579;DHT22;11967;50.852;4.400;2023-05-10T11:33:59;15.90;99.90
23579;DHT22;11967;50.852;4.400;2023-05-10T11:36:32;15.90;99.90
23579;DHT22;11967;50.852;4.400;2023-05-10T11:38:57;15.80;99.90
23579;DHT22;11967;50.852;4.400;2023-05-10T11:41:24;15.80;99.90
23579;DHT22;11967;50.852;4.400;2023-05-10T11:43:50;15.90;99.90
23579;DHT22;11967;50.852;4.400;2023-05-10T11:46:19;15.90;99.90
23579;DHT22;11967;50.852;4.400;2023-05-10T11:48:47;16.00;99.90
23579;DHT22;11967;50.852;4.400;2023-05-10T11:51:19;16.10;99.90
23579;DHT22;11967;50.852;4.400;2023-05-10T11:53:44;16.10;99.90
23579;DHT22;11967;50.852;4.400;2023-05-10T11:56:10;16.20;99.90
23579;DHT22;11967;50.852;4.400;2023-05-10T11:58:39;16.30;99.90
23579;DHT22;11967;50.852;4.400;2023-05-10T12:01:08;16.30;99.90
23579;DHT22;11967;50.852;4.400;2023-05-10T12:03:34;16.30;99.90
23579;DHT22;11967;50.852;4.400;2023-05-10T12:06:01;16.30;99.90
23579;DHT22;11967;50.852;4.400;2023-05-10T12:08:28;16.30;99.90
23579;DHT22;11967;50.852;4.400;2023-05-10T12:11:06;16.30;99.90
23579;DHT22;11967;50.852;4.400;2023-05-10T12:13:36;16.30;99.90
23579;DHT22;11967;50.852;4.400;2023-05-10T12:16:15;16.30;99.90
23579;DHT22;11967;50.852;4.400;2023-05-10T12:18:41;16.20;99.90
23579;DHT22;11967;50.852;4.400;2023-05-10T12:21:10;16.30;99.90
23579;DHT22;11967;50.852;4.400;2023-05-10T12:23:36;16.40;99.90
23579;DHT22;11967;50.852;4.400;2023-05-10T12:26:02;16.50;99.90
23579;DHT22;11967;50.852;4.400;2023-05-10T12:28:30;16.50;99.90
23579;DHT22;11967;50.852;4.400;2023-05-10T12:30:57;16.50;99.90
23579;DHT22;11967;50.852;4.400;2023-05-10T12:33:24;16.50;99.90
23579;DHT22;11967;50.852;4.400;2023-05-10T12:35:52;16.40;99.90
23579;DHT22;11967;50.852;4.400;2023-05-10T12:38:33;16.50;99.90
23579;DHT22;11967;50.852;4.400;2023-05-10T12:41:00;16.60;99.90
23579;DHT22;11967;50.852;4.400;2023-05-10T12:43:26;16.70;99.90
23579;DHT22;11967;50.852;4.400;2023-05-10T12:45:52;16.70;99.90
23579;DHT22;11967;50.852;4.400;2023-05-10T12:48:18;16.70;99.90
23579;DHT22;11967;50.852;4.400;2023-05-10T12:50:45;16.60;99.90
23579;DHT22;11967;50.852;4.400;2023-05-10T12:53:10;16.70;99.90
23579;DHT22;11967;50.852;4.400;2023-05-10T12:55:36;16.80;99.90
23579;DHT22;11967;50.852;4.400;2023-05-10T12:58:02;16.70;99.90
23579;DHT22;11967;50.852;4.400;2023-05-10T13:00:28;16.70;99.90
23579;DHT22;11967;50.852;4.400;2023-05-10T13:02:53;16.70;99.90
23579;DHT22;11967;50.852;4.400;2023-05-10T13:05:19;16.80;99.90
23579;DHT22;11967;50.852;4.400;2023-05-10T13:07:45;16.80;99.90
23579;DHT22;11967;50.852;4.400;2023-05-10T13:10:10;16.80;99.90
23579;DHT22;11967;50.852;4.400;2023-05-10T13:12:36;16.70;99.90
23579;DHT22;11967;50.852;4.400;2023-05-10T13:15:02;16.80;99.90
23579;DHT22;11967;50.852;4.400;2023-05-10T13:17:28;16.80;99.90
23579;DHT22;11967;50.852;4.400;2023-05-10T13:19:54;16.70;99.90
23579;DHT22;11967;50.852;4.400;2023-05-10T13:22:20;16.70;99.90
23579;DHT22;11967;50.852;4.400;2023-05-10T13:24:46;16.70;99.90
23579;DHT22;11967;50.852;4.400;2023-05-10T13:27:11;16.80;99.90
23579;DHT22;11967;50.852;4.400;2023-05-10T13:29:37;16.90;99.90
23579;DHT22;11967;50.852;4.400;2023-05-10T13:32:03;16.90;99.90
23579;DHT22;11967;50.852;4.400;2023-05-10T13:34:29;16.90;99.90
23579;DHT22;11967;50.852;4.400;2023-05-10T13:36:54;16.90;99.90
23579;DHT22;11967;50.852;4.400;2023-05-10T13:39:21;16.90;99.90
23579;DHT22;11967;50.852;4.400;2023-05-10T13:41:47;16.80;99.90
23579;DHT22;11967;50.852;4.400;2023-05-10T13:44:14;16.80;99.90
23579;DHT22;11967;50.852;4.400;2023-05-10T13:46:40;16.80;99.90
23579;DHT22;11967;50.852;4.400;2023-05-10T13:49:06;16.80;99.90
23579;DHT22;11967;50.852;4.400;2023-05-10T13:51:33;16.90;99.90
23579;DHT22;11967;50.852;4.400;2023-05-10T13:53:59;17.00;99.90
23579;DHT22;11967;50.852;4.400;2023-05-10T13:56:25;17.00;99.90
23579;DHT22;11967;50.852;4.400;2023-05-10T13:58:51;17.10;99.90
23579;DHT22;11967;50.852;4.400;2023-05-10T14:01:17;17.10;99.90
23579;DHT22;11967;50.852;4.400;2023-05-10T14:03:43;17.10;99.90
23579;DHT22;11967;50.852;4.400;2023-05-10T14:06:08;17.10;99.90
23579;DHT22;11967;50.852;4.400;2023-05-10T14:08:35;17.20;99.90
23579;DHT22;11967;50.852;4.400;2023-05-10T14:11:01;17.20;99.90
23579;DHT22;11967;50.852;4.400;2023-05-10T14:13:26;17.10;99.90
23579;DHT22;11967;50.852;4.400;2023-05-10T14:15:53;17.20;99.90
23579;DHT22;11967;50.852;4.400;2023-05-10T14:18:19;17.10;99.90
23579;DHT22;11967;50.852;4.400;2023-05-10T14:20:45;17.10;99.90
23579;DHT22;11967;50.852;4.400;2023-05-10T14:23:11;17.10;99.90
23579;DHT22;11967;50.852;4.400;2023-05-10T14:25:37;17.10;99.90
23579;DHT22;11967;50.852;4.400;2023-05-10T14:28:03;17.10;99.90
23579;DHT22;11967;50.852;4.400;2023-05-10T14:30:29;17.10;99.90
23579;DHT22;11967;50.852;4.400;2023-05-10T14:32:55;17.10;99.90
23579;DHT22;11967;50.852;4.400;2023-05-10T14:35:20;17.10;99.90
23579;DHT22;11967;50.852;4.400;2023-05-10T14:37:46;17.20;99.90
23579;DHT22;11967;50.852;4.400;2023-05-10T14:40:12;17.20;99.90
23579;DHT22;11967;50.852;4.400;2023-05-10T14:42:38;17.30;99.90
23579;DHT22;11967;50.852;4.400;2023-05-10T14:45:04;17.30;99.90
23579;DHT22;11967;50.852;4.400;2023-05-10T14:47:30;17.20;99.90
23579;DHT22;11967;50.852;4.400;2023-05-10T14:49:55;17.20;99.90
23579;DHT22;11967;50.852;4.400;2023-05-10T14:52:21;17.20;99.90
23579;DHT22;11967;50.852;4.400;2023-05-10T14:54:46;17.10;99.90
23579;DHT22;11967;50.852;4.400;2023-05-10T14:57:13;17.10;99.90
23579;DHT22;11967;50.852;4.400;2023-05-10T14:59:39;17.00;99.90
23579;DHT22;11967;50.852;4.400;2023-05-10T15:02:05;16.90;99.90
23579;DHT22;11967;50.852;4.400;2023-05-10T15:04:31;16.80;99.90
23579;DHT22;11967;50.852;4.400;2023-05-10T15:06:56;16.70;99.90
23579;DHT22;11967;50.852;4.400;2023-05-10T15:09:24;16.70;99.90
23579;DHT22;11967;50.852;4.400;2023-05-10T15:11:50;16.50;99.90
23579;DHT22;11967;50.852;4.400;2023-05-10T15:14:16;16.30;99.90
23579;DHT22;11967;50.852;4.400;2023-05-10T15:16:41;16.30;99.90
23579;DHT22;11967;50.852;4.400;2023-05-10T15:19:07;16.20;99.90
23579;DHT22;11967;50.852;4.400;2023-05-10T15:21:33;16.30;99.90
23579;DHT22;11967;50.852;4.400;2023-05-10T15:24:05;16.30;99.90
23579;DHT22;11967;50.852;4.400;2023-05-10T15:26:32;16.40;99.90
23579;DHT22;11967;50.852;4.400;2023-05-10T15:28:58;16.30;99.90
23579;DHT22;11967;50.852;4.400;2023-05-10T15:31:24;16.30;99.90
23579;DHT22;11967;50.852;4.400;2023-05-10T15:33:50;16.30;99.90
23579;DHT22;11967;50.852;4.400;2023-05-10T15:36:16;16.30;99.90
23579;DHT22;11967;50.852;4.400;2023-05-10T15:38:43;16.40;99.90
23579;DHT22;11967;50.852;4.400;2023-05-10T15:41:10;16.30;99.90
23579;DHT22;11967;50.852;4.400;2023-05-10T15:43:36;16.40;99.90
23579;DHT22;11967;50.852;4.400;2023-05-10T15:46:02;16.50;99.90
23579;DHT22;11967;50.852;4.400;2023-05-10T15:48:28;16.60;99.90
23579;DHT22;11967;50.852;4.400;2023-05-10T15:50:56;16.60;99.90
23579;DHT22;11967;50.852;4.400;2023-05-10T15:53:23;16.80;99.90
23579;DHT22;11967;50.852;4.400;2023-05-10T15:55:48;16.80;99.90
23579;DHT22;11967;50.852;4.400;2023-05-10T15:58:14;16.80;99.90